sensor_id;sensor_type;location;lat;lon;timestamp;P1;durP1;ratioP1;P2;durP2;ratioP2
49241;SDS011;35079;52.704;13.814;2024-02-14T00:02:10;15.48;;;9.48;;
49241;SDS011;35079;52.704;13.814;2024-02-14T00:04:37;19.30;;;9.43;;
49241;SDS011;35079;52.704;13.814;2024-02-14T00:07:05;14.23;;;9.00;;
49241;SDS011;35079;52.704;13.814;2024-02-14T00:09:31;13.90;;;8.60;;
49241;SDS011;35079;52.704;13.814;2024-02-14T00:11:57;14.45;;;9.07;;
49241;SDS011;35079;52.704;13.814;2024-02-14T00:14:23;17.95;;;9.23;;
49241;SDS011;35079;52.704;13.814;2024-02-14T00:16:57;15.10;;;8.27;;
49241;SDS011;35079;52.704;13.814;2024-02-14T00:19:24;12.52;;;7.95;;
49241;SDS011;35079;52.704;13.814;2024-02-14T00:21:51;19.83;;;9.60;;
49241;SDS011;35079;52.704;13.814;2024-02-14T00:24:17;18.85;;;9.10;;
49241;SDS011;35079;52.704;13.814;2024-02-14T00:26:44;13.40;;;8.15;;
49241;SDS011;35079;52.704;13.814;2024-02-14T00:29:13;15.73;;;8.57;;
49241;SDS011;35079;52.704;13.814;2024-02-14T00:31:39;13.20;;;8.85;;
49241;SDS011;35079;52.704;13.814;2024-02-14T00:34:08;14.68;;;8.75;;
49241;SDS011;35079;52.704;13.814;2024-02-14T00:36:35;15.75;;;8.77;;
49241;SDS011;35079;52.704;13.814;2024-02-14T00:39:02;14.38;;;8.35;;
49241;SDS011;35079;52.704;13.814;2024-02-14T00:41:28;16.17;;;8.38;;
49241;SDS011;35079;52.704;13.814;2024-02-14T00:43:57;12.02;;;8.38;;
49241;SDS011;35079;52.704;13.814;2024-02-14T00:46:24;13.90;;;7.10;;
49241;SDS011;35079;52.704;13.814;2024-02-14T00:48:50;17.75;;;8.68;;
49241;SDS011;35079;52.704;13.814;2024-02-14T00:51:16;16.13;;;8.27;;
49241;SDS011;35079;52.704;13.814;2024-02-14T00:53:42;12.95;;;7.55;;
49241;SDS011;35079;52.704;13.814;2024-02-14T00:56:09;17.42;;;8.75;;
49241;SDS011;35079;52.704;13.814;2024-02-14T00:58:35;15.77;;;8.38;;
49241;SDS011;35079;52.704;13.814;2024-02-14T01:01:01;13.02;;;7.80;;
49241;SDS011;35079;52.704;13.814;2024-02-14T01:03:31;17.17;;;8.65;;
49241;SDS011;35079;52.704;13.814;2024-02-14T01:05:57;12.45;;;7.10;;
49241;SDS011;35079;52.704;13.814;2024-02-14T01:08:24;15.88;;;8.77;;
49241;SDS011;35079;52.704;13.814;2024-02-14T01:10:50;14.80;;;8.82;;
49241;SDS011;35079;52.704;13.814;2024-02-14T01:13:17;16.85;;;8.48;;
49241;SDS011;35079;52.704;13.814;2024-02-14T01:15:44;14.80;;;8.23;;
49241;SDS011;35079;52.704;13.814;2024-02-14T01:18:11;11.98;;;8.05;;
49241;SDS011;35079;52.704;13.814;2024-02-14T01:20:38;14.93;;;8.50;;
49241;SDS011;35079;52.704;13.814;2024-02-14T01:23:08;12.52;;;7.93;;
49241;SDS011;35079;52.704;13.814;2024-02-14T01:25:34;14.43;;;8.45;;
49241;SDS011;35079;52.704;13.814;2024-02-14T01:28:00;13.70;;;8.50;;
49241;SDS011;35079;52.704;13.814;2024-02-14T01:30:26;15.73;;;8.05;;
49241;SDS011;35079;52.704;13.814;2024-02-14T01:32:51;12.45;;;7.47;;
49241;SDS011;35079;52.704;13.814;2024-02-14T01:35:18;14.45;;;8.13;;
49241;SDS011;35079;52.704;13.814;2024-02-14T01:37:43;16.75;;;9.27;;
49241;SDS011;35079;52.704;13.814;2024-02-14T01:40:10;14.68;;;7.68;;
49241;SDS011;35079;52.704;13.814;2024-02-14T01:42:36;9.52;;;6.22;;
49241;SDS011;35079;52.704;13.814;2024-02-14T01:45:02;14.70;;;8.43;;
49241;SDS011;35079;52.704;13.814;2024-02-14T01:47:28;15.50;;;8.70;;
49241;SDS011;35079;52.704;13.814;2024-02-14T01:49:54;15.38;;;8.02;;
49241;SDS011;35079;52.704;13.814;2024-02-14T01:52:19;10.93;;;6.75;;
49241;SDS011;35079;52.704;13.814;2024-02-14T01:54:46;13.85;;;8.10;;
49241;SDS011;35079;52.704;13.814;2024-02-14T01:57:12;15.50;;;7.65;;
49241;SDS011;35079;52.704;13.814;2024-02-14T01:59:39;9.90;;;6.70;;
49241;SDS011;35079;52.704;13.814;2024-02-14T02:02:04;12.07;;;7.22;;
49241;SDS011;35079;52.704;13.814;2024-02-14T02:04:33;12.65;;;7.30;;
49241;SDS011;35079;52.704;13.814;2024-02-14T02:06:59;13.07;;;6.88;;
49241;SDS011;35079;52.704;13.814;2024-02-14T02:09:25;10.45;;;6.20;;
49241;SDS011;35079;52.704;13.814;2024-02-14T02:11:51;15.40;;;7.72;;
49241;SDS011;35079;52.704;13.814;2024-02-14T02:14:26;12.68;;;8.00;;
49241;SDS011;35079;52.704;13.814;2024-02-14T02:16:53;12.82;;;6.43;;
49241;SDS011;35079;52.704;13.814;2024-02-14T02:19:18;14.25;;;7.88;;
49241;SDS011;35079;52.704;13.814;2024-02-14T02:21:44;11.73;;;7.20;;
49241;SDS011;35079;52.704;13.814;2024-02-14T02:24:11;11.73;;;6.60;;
49241;SDS011;35079;52.704;13.814;2024-02-14T02:26:37;15.30;;;7.78;;
49241;SDS011;35079;52.704;13.814;2024-02-14T02:29:02;13.45;;;7.68;;
49241;SDS011;35079;52.704;13.814;2024-02-14T02:31:30;11.98;;;7.05;;
49241;SDS011;35079;52.704;13.814;2024-02-14T02:33:55;13.73;;;7.50;;
49241;SDS011;35079;52.704;13.814;2024-02-14T02:36:21;11.27;;;7.78;;
49241;SDS011;35079;52.704;13.814;2024-02-14T02:38:50;13.27;;;7.82;;
49241;SDS011;35079;52.704;13.814;2024-02-14T02:41:16;12.55;;;7.35;;
49241;SDS011;35079;52.704;13.814;2024-02-14T02:43:42;13.52;;;7.35;;
49241;SDS011;35079;52.704;13.814;2024-02-14T02:46:11;13.25;;;8.20;;
49241;SDS011;35079;52.704;13.814;2024-02-14T02:48:37;13.88;;;8.95;;
49241;SDS011;35079;52.704;13.814;2024-02-14T02:51:02;9.50;;;6.50;;
49241;SDS011;35079;52.704;13.814;2024-02-14T02:53:28;14.15;;;7.30;;
49241;SDS011;35079;52.704;13.814;2024-02-14T02:55:54;11.05;;;7.07;;
49241;SDS011;35079;52.704;13.814;2024-02-14T02:58:22;14.30;;;7.85;;
49241;SDS011;35079;52.704;13.814;2024-02-14T03:00:48;14.23;;;8.05;;
49241;SDS011;35079;52.704;13.814;2024-02-14T03:03:16;15.73;;;7.72;;
49241;SDS011;35079;52.704;13.814;2024-02-14T03:05:44;15.50;;;7.45;;
49241;SDS011;35079;52.704;13.814;2024-02-14T03:08:11;12.13;;;7.50;;
49241;SDS011;35079;52.704;13.814;2024-02-14T03:10:41;13.48;;;7.78;;
49241;SDS011;35079;52.704;13.814;2024-02-14T03:13:10;11.63;;;7.28;;
49241;SDS011;35079;52.704;13.814;2024-02-14T03:15:37;12.30;;;7.05;;
49241;SDS011;35079;52.704;13.814;2024-02-14T03:18:03;12.68;;;6.97;;
49241;SDS011;35079;52.704;13.814;2024-02-14T03:20:34;10.23;;;6.88;;
49241;SDS011;35079;52.704;13.814;2024-02-14T03:23:00;12.57;;;7.57;;
49241;SDS011;35079;52.704;13.814;2024-02-14T03:25:28;12.95;;;7.60;;
49241;SDS011;35079;52.704;13.814;2024-02-14T03:27:54;14.20;;;7.40;;
49241;SDS011;35079;52.704;13.814;2024-02-14T03:30:22;10.77;;;7.93;;
49241;SDS011;35079;52.704;13.814;2024-02-14T03:32:48;12.45;;;7.22;;
49241;SDS011;35079;52.704;13.814;2024-02-14T03:35:14;12.95;;;6.50;;
49241;SDS011;35079;52.704;13.814;2024-02-14T03:37:41;12.85;;;7.65;;
49241;SDS011;35079;52.704;13.814;2024-02-14T03:40:08;12.45;;;7.53;;
49241;SDS011;35079;52.704;13.814;2024-02-14T03:42:34;12.82;;;7.05;;
49241;SDS011;35079;52.704;13.814;2024-02-14T03:45:00;11.55;;;7.28;;
49241;SDS011;35079;52.704;13.814;2024-02-14T03:47:31;11.32;;;6.82;;
49241;SDS011;35079;52.704;13.814;2024-02-14T03:49:57;14.23;;;7.53;;
49241;SDS011;35079;52.704;13.814;2024-02-14T03:52:23;12.35;;;7.55;;
49241;SDS011;35079;52.704;13.814;2024-02-14T03:54:49;11.05;;;7.20;;
49241;SDS011;35079;52.704;13.814;2024-02-14T03:57:15;10.13;;;6.75;;
49241;SDS011;35079;52.704;13.814;2024-02-14T03:59:42;14.00;;;7.65;;
49241;SDS011;35079;52.704;13.814;2024-02-14T04:02:08;12.70;;;8.23;;
49241;SDS011;35079;52.704;13.814;2024-02-14T04:04:37;16.23;;;8.15;;
49241;SDS011;35079;52.704;13.814;2024-02-14T04:07:04;10.85;;;6.63;;
49241;SDS011;35079;52.704;13.814;2024-02-14T04:09:32;13.98;;;7.35;;
49241;SDS011;35079;52.704;13.814;2024-02-14T04:11:58;9.93;;;6.70;;
49241;SDS011;35079;52.704;13.814;2024-02-14T04:14:24;10.13;;;6.57;;
49241;SDS011;35079;52.704;13.814;2024-02-14T04:16:50;11.00;;;6.35;;
49241;SDS011;35079;52.704;13.814;2024-02-14T04:19:16;12.80;;;6.93;;
49241;SDS011;35079;52.704;13.814;2024-02-14T04:21:42;11.95;;;6.50;;
49241;SDS011;35079;52.704;13.814;2024-02-14T04:24:08;10.80;;;6.57;;
49241;SDS011;35079;52.704;13.814;2024-02-14T04:26:34;9.38;;;6.95;;
49241;SDS011;35079;52.704;13.814;2024-02-14T04:28:59;8.23;;;6.20;;
49241;SDS011;35079;52.704;13.814;2024-02-14T04:31:25;14.88;;;7.63;;
49241;SDS011;35079;52.704;13.814;2024-02-14T04:33:51;11.93;;;6.72;;
49241;SDS011;35079;52.704;13.814;2024-02-14T04:36:18;10.85;;;7.15;;
49241;SDS011;35079;52.704;13.814;2024-02-14T04:38:50;14.55;;;7.60;;
49241;SDS011;35079;52.704;13.814;2024-02-14T04:41:20;10.10;;;6.80;;
49241;SDS011;35079;52.704;13.814;2024-02-14T04:43:46;11.43;;;7.10;;
49241;SDS011;35079;52.704;13.814;2024-02-14T04:46:12;12.10;;;7.50;;
49241;SDS011;35079;52.704;13.814;2024-02-14T04:48:38;13.38;;;8.82;;
49241;SDS011;35079;52.704;13.814;2024-02-14T04:51:04;12.02;;;7.72;;
49241;SDS011;35079;52.704;13.814;2024-02-14T04:53:30;11.98;;;6.97;;
49241;SDS011;35079;52.704;13.814;2024-02-14T04:55:56;13.18;;;7.55;;
49241;SDS011;35079;52.704;13.814;2024-02-14T04:58:22;10.30;;;6.47;;
49241;SDS011;35079;52.704;13.814;2024-02-14T05:00:48;12.57;;;6.72;;
49241;SDS011;35079;52.704;13.814;2024-02-14T05:03:13;10.70;;;6.50;;
49241;SDS011;35079;52.704;13.814;2024-02-14T05:05:40;12.63;;;6.30;;
49241;SDS011;35079;52.704;13.814;2024-02-14T05:08:06;12.68;;;6.50;;
49241;SDS011;35079;52.704;13.814;2024-02-14T05:10:32;10.68;;;6.38;;
49241;SDS011;35079;52.704;13.814;2024-02-14T05:12:57;12.70;;;6.68;;
49241;SDS011;35079;52.704;13.814;2024-02-14T05:15:23;11.20;;;6.38;;
49241;SDS011;35079;52.704;13.814;2024-02-14T05:17:49;13.88;;;6.13;;
49241;SDS011;35079;52.704;13.814;2024-02-14T05:20:16;9.55;;;6.82;;
49241;SDS011;35079;52.704;13.814;2024-02-14T05:22:42;9.73;;;6.22;;
49241;SDS011;35079;52.704;13.814;2024-02-14T05:25:08;10.45;;;6.35;;
49241;SDS011;35079;52.704;13.814;2024-02-14T05:27:34;13.20;;;5.80;;
49241;SDS011;35079;52.704;13.814;2024-02-14T05:30:02;10.75;;;6.43;;
49241;SDS011;35079;52.704;13.814;2024-02-14T05:32:34;10.15;;;6.35;;
49241;SDS011;35079;52.704;13.814;2024-02-14T05:35:01;11.85;;;6.05;;
49241;SDS011;35079;52.704;13.814;2024-02-14T05:37:31;9.32;;;6.00;;
49241;SDS011;35079;52.704;13.814;2024-02-14T05:39:57;11.55;;;6.15;;
49241;SDS011;35079;52.704;13.814;2024-02-14T05:42:23;11.05;;;6.47;;
49241;SDS011;35079;52.704;13.814;2024-02-14T05:44:49;10.85;;;6.20;;
49241;SDS011;35079;52.704;13.814;2024-02-14T05:47:17;13.40;;;6.35;;
49241;SDS011;35079;52.704;13.814;2024-02-14T05:49:45;9.13;;;5.47;;
49241;SDS011;35079;52.704;13.814;2024-02-14T05:52:18;10.15;;;6.20;;
49241;SDS011;35079;52.704;13.814;2024-02-14T05:54:44;11.77;;;6.13;;
49241;SDS011;35079;52.704;13.814;2024-02-14T05:57:10;8.80;;;5.70;;
49241;SDS011;35079;52.704;13.814;2024-02-14T05:59:35;11.32;;;6.45;;
49241;SDS011;35079;52.704;13.814;2024-02-14T06:02:01;9.30;;;6.22;;
49241;SDS011;35079;52.704;13.814;2024-02-14T06:04:28;11.10;;;6.38;;
49241;SDS011;35079;52.704;13.814;2024-02-14T06:06:53;9.93;;;6.10;;
49241;SDS011;35079;52.704;13.814;2024-02-14T06:09:19;9.60;;;5.93;;
49241;SDS011;35079;52.704;13.814;2024-02-14T06:11:45;11.65;;;6.28;;
49241;SDS011;35079;52.704;13.814;2024-02-14T06:14:10;10.25;;;6.07;;
49241;SDS011;35079;52.704;13.814;2024-02-14T06:16:37;9.38;;;5.72;;
49241;SDS011;35079;52.704;13.814;2024-02-14T06:19:03;9.27;;;5.68;;
49241;SDS011;35079;52.704;13.814;2024-02-14T06:21:29;10.48;;;5.93;;
49241;SDS011;35079;52.704;13.814;2024-02-14T06:23:55;12.15;;;6.03;;
49241;SDS011;35079;52.704;13.814;2024-02-14T06:26:23;9.38;;;6.15;;
49241;SDS011;35079;52.704;13.814;2024-02-14T06:28:49;10.38;;;5.40;;
49241;SDS011;35079;52.704;13.814;2024-02-14T06:31:19;10.25;;;6.13;;
49241;SDS011;35079;52.704;13.814;2024-02-14T06:33:48;12.30;;;6.65;;
49241;SDS011;35079;52.704;13.814;2024-02-14T06:36:19;12.90;;;6.55;;
49241;SDS011;35079;52.704;13.814;2024-02-14T06:41:52;10.88;;;5.85;;
49241;SDS011;35079;52.704;13.814;2024-02-14T06:44:33;10.35;;;6.68;;
49241;SDS011;35079;52.704;13.814;2024-02-14T06:47:09;11.10;;;6.18;;
49241;SDS011;35079;52.704;13.814;2024-02-14T06:49:34;12.75;;;6.75;;
49241;SDS011;35079;52.704;13.814;2024-02-14T06:52:00;10.23;;;6.50;;
49241;SDS011;35079;52.704;13.814;2024-02-14T06:54:26;15.55;;;6.20;;
49241;SDS011;35079;52.704;13.814;2024-02-14T06:56:51;10.68;;;6.00;;
49241;SDS011;35079;52.704;13.814;2024-02-14T06:59:17;11.10;;;6.03;;
49241;SDS011;35079;52.704;13.814;2024-02-14T07:01:43;10.70;;;6.05;;
49241;SDS011;35079;52.704;13.814;2024-02-14T07:04:08;7.28;;;5.40;;
49241;SDS011;35079;52.704;13.814;2024-02-14T07:06:34;11.50;;;5.85;;
49241;SDS011;35079;52.704;13.814;2024-02-14T07:09:03;8.48;;;5.43;;
49241;SDS011;35079;52.704;13.814;2024-02-14T07:11:29;13.13;;;6.20;;
49241;SDS011;35079;52.704;13.814;2024-02-14T07:13:55;10.40;;;6.25;;
49241;SDS011;35079;52.704;13.814;2024-02-14T07:16:24;10.32;;;5.57;;
49241;SDS011;35079;52.704;13.814;2024-02-14T07:18:51;8.50;;;5.25;;
49241;SDS011;35079;52.704;13.814;2024-02-14T07:21:18;10.02;;;5.55;;
49241;SDS011;35079;52.704;13.814;2024-02-14T07:23:44;8.80;;;5.10;;
49241;SDS011;35079;52.704;13.814;2024-02-14T07:26:12;10.65;;;6.00;;
49241;SDS011;35079;52.704;13.814;2024-02-14T07:28:48;7.80;;;4.88;;
49241;SDS011;35079;52.704;13.814;2024-02-14T07:31:17;10.02;;;5.43;;
49241;SDS011;35079;52.704;13.814;2024-02-14T07:33:44;12.60;;;5.22;;
49241;SDS011;35079;52.704;13.814;2024-02-14T07:36:12;9.70;;;5.03;;
49241;SDS011;35079;52.704;13.814;2024-02-14T07:38:38;8.82;;;5.22;;
49241;SDS011;35079;52.704;13.814;2024-02-14T07:41:05;7.50;;;5.00;;
49241;SDS011;35079;52.704;13.814;2024-02-14T07:43:31;7.97;;;4.85;;
49241;SDS011;35079;52.704;13.814;2024-02-14T07:46:17;8.15;;;4.72;;
49241;SDS011;35079;52.704;13.814;2024-02-14T07:49:00;9.60;;;5.53;;
49241;SDS011;35079;52.704;13.814;2024-02-14T07:51:42;9.02;;;5.03;;
49241;SDS011;35079;52.704;13.814;2024-02-14T07:54:18;8.50;;;4.65;;
49241;SDS011;35079;52.704;13.814;2024-02-14T07:56:49;8.90;;;5.00;;
49241;SDS011;35079;52.704;13.814;2024-02-14T07:59:18;10.70;;;4.65;;
49241;SDS011;35079;52.704;13.814;2024-02-14T08:01:50;8.27;;;4.72;;
49241;SDS011;35079;52.704;13.814;2024-02-14T08:04:24;8.07;;;4.55;;
49241;SDS011;35079;52.704;13.814;2024-02-14T08:06:51;8.77;;;4.38;;
49241;SDS011;35079;52.704;13.814;2024-02-14T08:09:26;6.43;;;4.03;;
49241;SDS011;35079;52.704;13.814;2024-02-14T08:11:52;6.97;;;4.38;;
49241;SDS011;35079;52.704;13.814;2024-02-14T08:14:19;7.60;;;5.05;;
49241;SDS011;35079;52.704;13.814;2024-02-14T08:16:46;7.07;;;4.50;;
49241;SDS011;35079;52.704;13.814;2024-02-14T08:19:12;5.72;;;4.63;;
49241;SDS011;35079;52.704;13.814;2024-02-14T08:21:44;8.90;;;4.55;;
49241;SDS011;35079;52.704;13.814;2024-02-14T08:24:11;6.97;;;4.53;;
49241;SDS011;35079;52.704;13.814;2024-02-14T08:26:41;7.80;;;4.63;;
49241;SDS011;35079;52.704;13.814;2024-02-14T08:29:07;11.32;;;6.40;;
49241;SDS011;35079;52.704;13.814;2024-02-14T08:31:35;7.90;;;4.32;;
49241;SDS011;35079;52.704;13.814;2024-02-14T08:34:00;10.02;;;5.10;;
49241;SDS011;35079;52.704;13.814;2024-02-14T08:36:26;7.72;;;4.88;;
49241;SDS011;35079;52.704;13.814;2024-02-14T08:38:52;6.40;;;4.40;;
49241;SDS011;35079;52.704;13.814;2024-02-14T08:41:18;7.78;;;4.18;;
49241;SDS011;35079;52.704;13.814;2024-02-14T08:43:44;6.30;;;3.67;;
49241;SDS011;35079;52.704;13.814;2024-02-14T08:46:10;11.82;;;4.30;;
49241;SDS011;35079;52.704;13.814;2024-02-14T08:48:37;6.50;;;3.80;;
49241;SDS011;35079;52.704;13.814;2024-02-14T08:51:07;7.00;;;3.63;;
49241;SDS011;35079;52.704;13.814;2024-02-14T08:53:34;7.53;;;4.20;;
49241;SDS011;35079;52.704;13.814;2024-02-14T08:56:01;8.20;;;4.00;;
49241;SDS011;35079;52.704;13.814;2024-02-14T08:58:27;4.32;;;3.75;;
49241;SDS011;35079;52.704;13.814;2024-02-14T09:00:59;6.93;;;3.35;;
49241;SDS011;35079;52.704;13.814;2024-02-14T09:03:27;6.72;;;3.70;;
49241;SDS011;35079;52.704;13.814;2024-02-14T09:05:53;6.25;;;3.60;;
49241;SDS011;35079;52.704;13.814;2024-02-14T09:08:19;6.07;;;3.80;;
49241;SDS011;35079;52.704;13.814;2024-02-14T09:10:45;4.93;;;3.40;;
49241;SDS011;35079;52.704;13.814;2024-02-14T09:13:11;7.07;;;3.70;;
49241;SDS011;35079;52.704;13.814;2024-02-14T09:15:38;4.25;;;3.35;;
49241;SDS011;35079;52.704;13.814;2024-02-14T09:18:06;5.75;;;3.05;;
49241;SDS011;35079;52.704;13.814;2024-02-14T09:20:39;6.20;;;3.40;;
49241;SDS011;35079;52.704;13.814;2024-02-14T09:23:15;6.68;;;3.38;;
49241;SDS011;35079;52.704;13.814;2024-02-14T09:25:51;4.07;;;3.22;;
49241;SDS011;35079;52.704;13.814;2024-02-14T09:28:22;7.20;;;3.30;;
49241;SDS011;35079;52.704;13.814;2024-02-14T09:30:50;5.40;;;2.78;;
49241;SDS011;35079;52.704;13.814;2024-02-14T09:33:16;4.35;;;3.20;;
49241;SDS011;35079;52.704;13.814;2024-02-14T09:35:42;6.30;;;3.47;;
49241;SDS011;35079;52.704;13.814;2024-02-14T09:38:12;6.72;;;3.05;;
49241;SDS011;35079;52.704;13.814;2024-02-14T09:43:31;4.50;;;3.15;;
49241;SDS011;35079;52.704;13.814;2024-02-14T09:46:08;3.72;;;2.88;;
49241;SDS011;35079;52.704;13.814;2024-02-14T09:48:37;5.47;;;3.25;;
49241;SDS011;35079;52.704;13.814;2024-02-14T09:51:18;6.25;;;3.38;;
49241;SDS011;35079;52.704;13.814;2024-02-14T09:53:44;5.95;;;3.33;;
49241;SDS011;35079;52.704;13.814;2024-02-14T09:56:11;7.63;;;3.10;;
49241;SDS011;35079;52.704;13.814;2024-02-14T09:58:38;6.30;;;3.65;;
49241;SDS011;35079;52.704;13.814;2024-02-14T10:01:05;6.05;;;3.72;;
49241;SDS011;35079;52.704;13.814;2024-02-14T10:03:31;6.70;;;3.47;;
49241;SDS011;35079;52.704;13.814;2024-02-14T10:05:58;5.40;;;3.20;;
49241;SDS011;35079;52.704;13.814;2024-02-14T10:08:24;7.72;;;3.42;;
49241;SDS011;35079;52.704;13.814;2024-02-14T10:10:51;4.18;;;3.33;;
49241;SDS011;35079;52.704;13.814;2024-02-14T10:13:17;8.27;;;3.78;;
49241;SDS011;35079;52.704;13.814;2024-02-14T10:15:43;4.88;;;3.28;;
49241;SDS011;35079;52.704;13.814;2024-02-14T10:18:08;6.72;;;3.50;;
49241;SDS011;35079;52.704;13.814;2024-02-14T10:20:34;6.97;;;3.42;;
49241;SDS011;35079;52.704;13.814;2024-02-14T10:23:05;7.35;;;4.15;;
49241;SDS011;35079;52.704;13.814;2024-02-14T10:25:34;6.53;;;3.53;;
49241;SDS011;35079;52.704;13.814;2024-02-14T10:28:04;7.63;;;3.65;;
49241;SDS011;35079;52.704;13.814;2024-02-14T10:30:34;7.35;;;3.85;;
49241;SDS011;35079;52.704;13.814;2024-02-14T10:33:03;6.28;;;3.70;;
49241;SDS011;35079;52.704;13.814;2024-02-14T10:35:32;6.80;;;3.75;;
49241;SDS011;35079;52.704;13.814;2024-02-14T10:38:02;6.80;;;3.60;;
49241;SDS011;35079;52.704;13.814;2024-02-14T10:40:28;7.15;;;3.38;;
49241;SDS011;35079;52.704;13.814;2024-02-14T10:42:56;7.22;;;3.65;;
49241;SDS011;35079;52.704;13.814;2024-02-14T10:45:23;7.53;;;3.67;;
49241;SDS011;35079;52.704;13.814;2024-02-14T10:47:52;8.27;;;3.90;;
49241;SDS011;35079;52.704;13.814;2024-02-14T10:50:18;5.70;;;3.90;;
49241;SDS011;35079;52.704;13.814;2024-02-14T10:52:47;5.35;;;3.53;;
49241;SDS011;35079;52.704;13.814;2024-02-14T10:55:14;7.95;;;3.50;;
49241;SDS011;35079;52.704;13.814;2024-02-14T10:57:43;5.97;;;3.78;;
49241;SDS011;35079;52.704;13.814;2024-02-14T11:00:10;5.45;;;3.30;;
49241;SDS011;35079;52.704;13.814;2024-02-14T11:02:39;9.10;;;3.65;;
49241;SDS011;35079;52.704;13.814;2024-02-14T11:05:11;5.47;;;3.72;;
49241;SDS011;35079;52.704;13.814;2024-02-14T11:07:43;4.35;;;3.75;;
49241;SDS011;35079;52.704;13.814;2024-02-14T11:10:12;7.15;;;3.53;;
49241;SDS011;35079;52.704;13.814;2024-02-14T11:12:39;8.30;;;3.67;;
49241;SDS011;35079;52.704;13.814;2024-02-14T11:15:09;6.57;;;3.58;;
49241;SDS011;35079;52.704;13.814;2024-02-14T11:17:36;5.22;;;3.55;;
49241;SDS011;35079;52.704;13.814;2024-02-14T11:20:11;4.90;;;3.30;;
49241;SDS011;35079;52.704;13.814;2024-02-14T11:23:05;5.20;;;3.40;;
49241;SDS011;35079;52.704;13.814;2024-02-14T11:25:37;6.50;;;3.47;;
49241;SDS011;35079;52.704;13.814;2024-02-14T11:28:13;5.35;;;3.35;;
49241;SDS011;35079;52.704;13.814;2024-02-14T11:30:39;5.35;;;3.10;;
49241;SDS011;35079;52.704;13.814;2024-02-14T11:33:15;5.30;;;3.40;;
49241;SDS011;35079;52.704;13.814;2024-02-14T11:35:49;4.65;;;3.42;;
49241;SDS011;35079;52.704;13.814;2024-02-14T11:38:16;5.47;;;3.53;;
49241;SDS011;35079;52.704;13.814;2024-02-14T11:40:43;6.60;;;4.10;;
49241;SDS011;35079;52.704;13.814;2024-02-14T11:43:19;4.70;;;3.50;;
49241;SDS011;35079;52.704;13.814;2024-02-14T11:45:45;5.22;;;3.30;;
49241;SDS011;35079;52.704;13.814;2024-02-14T11:48:14;5.55;;;3.72;;
49241;SDS011;35079;52.704;13.814;2024-02-14T11:50:42;6.32;;;4.07;;
49241;SDS011;35079;52.704;13.814;2024-02-14T11:53:10;6.32;;;3.35;;
49241;SDS011;35079;52.704;13.814;2024-02-14T11:55:38;5.53;;;3.20;;
49241;SDS011;35079;52.704;13.814;2024-02-14T11:58:08;5.13;;;3.25;;
49241;SDS011;35079;52.704;13.814;2024-02-14T12:00:36;4.78;;;3.40;;
49241;SDS011;35079;52.704;13.814;2024-02-14T12:03:06;6.82;;;3.33;;
49241;SDS011;35079;52.704;13.814;2024-02-14T12:05:34;4.32;;;3.20;;
49241;SDS011;35079;52.704;13.814;2024-02-14T12:08:02;4.05;;;3.47;;
49241;SDS011;35079;52.704;13.814;2024-02-14T12:10:32;5.70;;;3.22;;
49241;SDS011;35079;52.704;13.814;2024-02-14T12:12:58;9.85;;;3.75;;
49241;SDS011;35079;52.704;13.814;2024-02-14T12:15:29;6.65;;;3.38;;
49241;SDS011;35079;52.704;13.814;2024-02-14T12:17:57;8.68;;;4.50;;
49241;SDS011;35079;52.704;13.814;2024-02-14T12:20:23;4.28;;;3.53;;
49241;SDS011;35079;52.704;13.814;2024-02-14T12:22:49;7.60;;;3.70;;
49241;SDS011;35079;52.704;13.814;2024-02-14T12:25:15;6.25;;;3.60;;
49241;SDS011;35079;52.704;13.814;2024-02-14T12:27:41;5.93;;;3.92;;
49241;SDS011;35079;52.704;13.814;2024-02-14T12:30:07;7.25;;;4.00;;
49241;SDS011;35079;52.704;13.814;2024-02-14T12:32:34;6.38;;;3.80;;
49241;SDS011;35079;52.704;13.814;2024-02-14T12:35:00;7.72;;;4.05;;
49241;SDS011;35079;52.704;13.814;2024-02-14T12:37:26;9.30;;;4.13;;
49241;SDS011;35079;52.704;13.814;2024-02-14T12:39:52;8.77;;;3.95;;
49241;SDS011;35079;52.704;13.814;2024-02-14T12:42:21;6.85;;;4.13;;
49241;SDS011;35079;52.704;13.814;2024-02-14T12:44:50;5.85;;;4.50;;
49241;SDS011;35079;52.704;13.814;2024-02-14T12:47:18;8.15;;;5.05;;
49241;SDS011;35079;52.704;13.814;2024-02-14T12:49:46;7.22;;;5.00;;
49241;SDS011;35079;52.704;13.814;2024-02-14T12:52:13;6.75;;;4.68;;
49241;SDS011;35079;52.704;13.814;2024-02-14T12:54:39;9.32;;;4.55;;
49241;SDS011;35079;52.704;13.814;2024-02-14T12:57:04;7.88;;;4.72;;
49241;SDS011;35079;52.704;13.814;2024-02-14T12:59:31;7.57;;;4.32;;
49241;SDS011;35079;52.704;13.814;2024-02-14T13:01:57;6.80;;;4.28;;
49241;SDS011;35079;52.704;13.814;2024-02-14T13:04:23;8.02;;;4.15;;
49241;SDS011;35079;52.704;13.814;2024-02-14T13:06:48;6.70;;;4.22;;
49241;SDS011;35079;52.704;13.814;2024-02-14T13:09:14;7.65;;;4.93;;
49241;SDS011;35079;52.704;13.814;2024-02-14T13:11:40;8.75;;;4.95;;
49241;SDS011;35079;52.704;13.814;2024-02-14T13:14:07;8.40;;;4.03;;
49241;SDS011;35079;52.704;13.814;2024-02-14T13:16:36;6.22;;;3.80;;
49241;SDS011;35079;52.704;13.814;2024-02-14T13:19:02;6.55;;;4.07;;
49241;SDS011;35079;52.704;13.814;2024-02-14T13:21:27;5.90;;;4.45;;
49241;SDS011;35079;52.704;13.814;2024-02-14T13:23:54;5.25;;;3.92;;
49241;SDS011;35079;52.704;13.814;2024-02-14T13:26:22;7.63;;;4.40;;
49241;SDS011;35079;52.704;13.814;2024-02-14T13:28:49;5.80;;;4.13;;
49241;SDS011;35079;52.704;13.814;2024-02-14T13:31:15;7.28;;;4.03;;
49241;SDS011;35079;52.704;13.814;2024-02-14T13:33:41;7.60;;;3.95;;
49241;SDS011;35079;52.704;13.814;2024-02-14T13:36:06;5.95;;;3.80;;
49241;SDS011;35079;52.704;13.814;2024-02-14T13:38:33;4.50;;;3.90;;
49241;SDS011;35079;52.704;13.814;2024-02-14T13:40:58;5.93;;;4.07;;
49241;SDS011;35079;52.704;13.814;2024-02-14T13:43:24;4.50;;;3.60;;
49241;SDS011;35079;52.704;13.814;2024-02-14T13:45:50;8.15;;;4.78;;
49241;SDS011;35079;52.704;13.814;2024-02-14T13:48:16;5.60;;;3.60;;
49241;SDS011;35079;52.704;13.814;2024-02-14T13:50:41;8.00;;;4.47;;
49241;SDS011;35079;52.704;13.814;2024-02-14T13:53:07;5.20;;;3.88;;
49241;SDS011;35079;52.704;13.814;2024-02-14T13:55:33;5.93;;;4.10;;
49241;SDS011;35079;52.704;13.814;2024-02-14T13:57:59;6.10;;;4.38;;
49241;SDS011;35079;52.704;13.814;2024-02-14T14:00:25;9.27;;;4.28;;
49241;SDS011;35079;52.704;13.814;2024-02-14T14:02:50;4.57;;;3.70;;
49241;SDS011;35079;52.704;13.814;2024-02-14T14:05:16;4.82;;;3.70;;
49241;SDS011;35079;52.704;13.814;2024-02-14T14:07:42;6.13;;;4.03;;
49241;SDS011;35079;52.704;13.814;2024-02-14T14:10:08;7.32;;;4.40;;
49241;SDS011;35079;52.704;13.814;2024-02-14T14:12:34;7.72;;;4.10;;
49241;SDS011;35079;52.704;13.814;2024-02-14T14:15:00;9.23;;;4.45;;
49241;SDS011;35079;52.704;13.814;2024-02-14T14:17:28;8.40;;;4.80;;
49241;SDS011;35079;52.704;13.814;2024-02-14T14:20:00;6.45;;;4.35;;
49241;SDS011;35079;52.704;13.814;2024-02-14T14:22:25;6.38;;;4.07;;
49241;SDS011;35079;52.704;13.814;2024-02-14T14:27:48;7.10;;;4.43;;
49241;SDS011;35079;52.704;13.814;2024-02-14T14:30:13;7.10;;;4.55;;
49241;SDS011;35079;52.704;13.814;2024-02-14T14:32:39;6.78;;;5.35;;
49241;SDS011;35079;52.704;13.814;2024-02-14T14:35:05;5.03;;;4.53;;
49241;SDS011;35079;52.704;13.814;2024-02-14T14:37:31;11.20;;;5.18;;
49241;SDS011;35079;52.704;13.814;2024-02-14T14:42:33;6.82;;;4.68;;